Time;durP1;ratioP1;P1;durP2;ratioP2;P2;SDS_P1;SDS_P2;PMS_P1;PMS_P2;Temp;Humidity;BMP_temperature;BMP_pressure;BME280_temperature;BME280_humidity;BME280_pressure;Samples;Min_cycle;Max_cycle;Signal;HPM_P1;HPM_P2
2022/03/29 00:01:00;;;;;;;30.20;25.30;;;6.50;99.90;;;;;;5054104;28;20401;-43
2022/03/29 00:03:26;;;;;;;33.17;27.45;;;6.50;99.90;;;;;;5061919;28;20527;-41
2022/03/29 00:05:53;;;;;;;33.15;25.95;;;6.50;99.90;;;;;;5054756;28;20053;-43
2022/03/29 00:08:19;;;;;;;29.05;24.50;;;6.50;99.90;;;;;;5044403;28;20056;-41
2022/03/29 00:10:45;;;;;;;26.77;23.63;;;6.60;99.90;;;;;;5052306;28;20052;-41
2022/03/29 00:13:11;;;;;;;24.85;21.50;;;6.50;99.90;;;;;;5046849;28;20056;-42
2022/03/29 00:15:37;;;;;;;27.35;23.17;;;6.50;99.90;;;;;;5027007;28;20492;-41
2022/03/29 00:18:04;;;;;;;27.15;22.45;;;6.50;99.90;;;;;;5054089;28;20052;-41
2022/03/29 00:20:30;;;;;;;27.25;22.33;;;6.50;99.90;;;;;;5027006;28;20060;-41
2022/03/29 00:22:56;;;;;;;24.15;20.45;;;6.50;99.90;;;;;;5045802;28;20060;-42
2022/03/29 00:25:22;;;;;;;27.25;21.38;;;6.50;99.90;;;;;;5043150;28;20555;-42
2022/03/29 00:27:49;;;;;;;26.55;21.38;;;6.50;99.90;;;;;;5050603;28;20045;-43
2022/03/29 00:30:16;;;;;;;25.38;20.80;;;6.50;99.90;;;;;;5050546;28;20055;-42
2022/03/29 00:32:44;;;;;;;27.77;20.67;;;6.60;99.90;;;;;;5057168;28;20053;-42
2022/03/29 00:35:13;;;;;;;27.95;21.85;;;6.60;99.90;;;;;;5047622;28;20052;-41
2022/03/29 00:37:42;;;;;;;28.67;22.17;;;6.60;99.90;;;;;;5029247;28;20374;-41
2022/03/29 00:40:10;;;;;;;26.52;21.08;;;6.70;99.90;;;;;;5059246;28;20567;-40
2022/03/29 00:42:36;;;;;;;29.05;21.23;;;6.70;99.90;;;;;;5057168;28;20060;-41
2022/03/29 00:45:04;;;;;;;24.63;20.23;;;6.70;99.90;;;;;;5054527;28;20045;-41
2022/03/29 00:47:30;;;;;;;27.42;21.63;;;6.70;99.90;;;;;;5056606;28;20578;-41
2022/03/29 00:49:56;;;;;;;31.90;21.65;;;6.60;99.90;;;;;;5064493;28;20044;-42
2022/03/29 00:52:22;;;;;;;29.05;20.25;;;6.60;99.90;;;;;;5055902;28;20053;-42
2022/03/29 00:54:50;;;;;;;26.65;20.00;;;6.60;99.90;;;;;;5043364;28;20509;-42
2022/03/29 00:57:16;;;;;;;25.23;20.77;;;6.60;99.90;;;;;;5039561;28;20495;-42
2022/03/29 00:59:44;;;;;;;28.42;20.95;;;6.60;99.90;;;;;;5056735;28;20102;-42
2022/03/29 01:02:10;;;;;;;26.58;19.98;;;6.70;99.90;;;;;;5044320;28;20055;-42
2022/03/29 01:04:37;;;;;;;26.17;20.83;;;6.70;99.90;;;;;;5045382;28;20131;-43
2022/03/29 01:07:04;;;;;;;29.23;22.27;;;6.70;99.90;;;;;;5044798;28;20057;-42
2022/03/29 01:09:30;;;;;;;29.67;21.90;;;6.70;99.90;;;;;;5046605;28;20053;-41
2022/03/29 01:11:59;;;;;;;29.63;21.80;;;6.50;99.90;;;;;;5058091;28;20080;-42
2022/03/29 01:14:28;;;;;;;29.67;22.00;;;6.60;99.90;;;;;;5057524;28;20080;-43
2022/03/29 01:19:43;;;;;;;33.35;21.73;;;6.60;99.90;;;;;;5045277;28;20095;-41
2022/03/29 01:22:10;;;;;;;31.77;21.88;;;6.60;99.90;;;;;;5056250;28;20052;-40
2022/03/29 01:24:37;;;;;;;26.92;21.40;;;6.50;99.90;;;;;;5048938;28;20048;-43
2022/03/29 01:27:07;;;;;;;29.88;23.50;;;6.60;99.90;;;;;;5059561;28;20066;-41
2022/03/29 01:29:34;;;;;;;30.33;23.33;;;6.60;99.90;;;;;;5048202;28;20403;-40
2022/03/29 01:32:06;;;;;;;29.88;22.05;;;6.60;99.90;;;;;;5057595;28;20052;-40
2022/03/29 01:34:35;;;;;;;32.55;24.33;;;6.60;99.90;;;;;;5046894;28;20090;-42
2022/03/29 01:37:04;;;;;;;31.40;23.63;;;6.60;99.90;;;;;;5060268;28;20052;-41
2022/03/29 01:39:29;;;;;;;32.55;23.92;;;6.60;99.90;;;;;;5055036;28;20094;-40
2022/03/29 01:41:55;;;;;;;30.13;23.42;;;6.50;99.90;;;;;;5037166;28;20045;-43
2022/03/29 01:44:21;;;;;;;31.20;22.98;;;6.50;99.90;;;;;;5040449;28;20407;-42
2022/03/29 01:46:46;;;;;;;37.47;25.13;;;6.50;99.90;;;;;;5041045;28;20068;-41
2022/03/29 01:49:13;;;;;;;33.10;25.13;;;6.50;99.90;;;;;;5039872;28;20630;-40
2022/03/29 01:51:39;;;;;;;34.95;27.10;;;6.40;99.90;;;;;;5040387;28;20048;-42
2022/03/29 01:54:05;;;;;;;35.90;25.00;;;6.40;99.90;;;;;;5040244;28;20052;-40
2022/03/29 01:56:32;;;;;;;37.35;24.88;;;6.40;99.90;;;;;;5040698;28;20419;-43
2022/03/29 01:59:03;;;;;;;36.80;26.60;;;6.40;99.90;;;;;;5039191;28;20480;-42
2022/03/29 02:01:29;;;;;;;30.65;23.83;;;6.40;99.90;;;;;;5038949;28;20411;-41
2022/03/29 02:03:55;;;;;;;33.88;25.02;;;6.40;99.90;;;;;;5022187;28;20103;-41
2022/03/29 02:06:20;;;;;;;33.17;24.40;;;6.50;99.90;;;;;;5041157;28;20574;-43
2022/03/29 02:08:46;;;;;;;30.83;22.60;;;6.40;99.90;;;;;;5022730;28;20045;-41
2022/03/29 02:11:13;;;;;;;32.17;22.52;;;6.40;99.90;;;;;;5039892;28;20067;-42
2022/03/29 02:13:39;;;;;;;28.55;22.27;;;6.50;99.90;;;;;;5039493;28;20052;-41
2022/03/29 02:16:07;;;;;;;32.00;24.73;;;6.50;99.90;;;;;;5020829;28;20053;-42
2022/03/29 02:18:33;;;;;;;29.73;21.77;;;6.50;99.90;;;;;;5041109;28;20053;-42
2022/03/29 02:20:59;;;;;;;30.02;22.50;;;6.50;99.90;;;;;;5040146;28;20399;-41
2022/03/29 02:23:26;;;;;;;32.38;23.33;;;6.60;99.90;;;;;;5044376;28;20079;-42
2022/03/29 02:25:52;;;;;;;30.63;22.60;;;6.60;99.90;;;;;;5039465;28;20709;-45
2022/03/29 02:28:17;;;;;;;31.10;23.33;;;6.60;99.90;;;;;;5023007;28;20056;-42
2022/03/29 02:30:43;;;;;;;35.53;23.52;;;6.60;99.90;;;;;;5039178;28;20530;-42
2022/03/29 02:33:09;;;;;;;29.15;22.17;;;6.60;99.90;;;;;;5039411;28;20053;-40
2022/03/29 02:35:35;;;;;;;30.02;23.00;;;6.60;99.90;;;;;;5039629;28;20045;-39
2022/03/29 02:38:00;;;;;;;32.78;23.70;;;6.60;99.90;;;;;;5019527;28;20140;-42
2022/03/29 02:40:26;;;;;;;36.30;23.80;;;6.60;99.90;;;;;;5045357;28;21054;-42
2022/03/29 02:42:55;;;;;;;29.63;22.60;;;6.60;99.90;;;;;;5058999;28;20052;-41
2022/03/29 02:45:24;;;;;;;29.10;22.10;;;6.70;99.90;;;;;;5055128;28;20068;-42
2022/03/29 02:47:54;;;;;;;32.67;22.48;;;6.70;99.90;;;;;;5055146;28;20577;-41
2022/03/29 02:50:21;;;;;;;31.08;23.42;;;6.70;99.90;;;;;;5040694;28;20124;-42
2022/03/29 02:52:47;;;;;;;31.00;22.85;;;6.70;99.90;;;;;;5056941;28;20052;-40
2022/03/29 02:55:14;;;;;;;30.55;22.60;;;6.80;99.90;;;;;;5054698;28;20052;-42
2022/03/29 02:57:41;;;;;;;30.73;22.83;;;6.80;99.90;;;;;;5038086;28;20056;-43
2022/03/29 03:00:07;;;;;;;27.38;22.42;;;6.80;99.90;;;;;;5056571;28;20059;-40
2022/03/29 03:02:34;;;;;;;27.45;22.13;;;6.80;99.90;;;;;;5030903;28;20060;-41
2022/03/29 03:05:00;;;;;;;32.22;23.10;;;6.80;99.90;;;;;;5053448;28;20494;-40
2022/03/29 03:07:27;;;;;;;31.38;22.75;;;6.80;99.90;;;;;;5033760;28;20218;-43
2022/03/29 03:09:53;;;;;;;30.65;23.55;;;6.80;99.90;;;;;;5056842;28;20056;-42
2022/03/29 03:12:19;;;;;;;31.20;23.67;;;6.80;99.90;;;;;;5034098;28;20443;-42
2022/03/29 03:14:45;;;;;;;34.08;23.85;;;6.80;99.90;;;;;;5049530;28;20140;-43
2022/03/29 03:17:11;;;;;;;29.77;23.08;;;6.80;99.90;;;;;;5035025;28;20057;-41
2022/03/29 03:19:37;;;;;;;33.45;23.38;;;6.80;99.90;;;;;;5049862;28;20047;-41
2022/03/29 03:22:03;;;;;;;30.35;23.23;;;6.80;99.90;;;;;;5051211;28;20057;-41
2022/03/29 03:24:28;;;;;;;31.50;24.55;;;6.80;99.90;;;;;;5055974;28;20052;-41
2022/03/29 03:26:54;;;;;;;33.83;23.17;;;6.80;99.90;;;;;;5036688;28;20519;-42
2022/03/29 03:29:20;;;;;;;32.08;22.52;;;6.80;99.90;;;;;;5052905;28;20045;-42
2022/03/29 03:31:47;;;;;;;29.80;22.08;;;6.80;99.90;;;;;;5057846;28;20055;-42
2022/03/29 03:34:16;;;;;;;34.80;24.08;;;6.80;99.90;;;;;;5051775;28;20470;-41
2022/03/29 03:36:42;;;;;;;34.90;23.08;;;6.80;99.90;;;;;;5061738;28;20048;-41
2022/03/29 03:39:08;;;;;;;32.70;24.02;;;6.80;99.90;;;;;;5053832;28;20049;-42
2022/03/29 03:41:34;;;;;;;34.20;24.17;;;6.80;99.90;;;;;;5038727;28;20061;-42
2022/03/29 03:44:00;;;;;;;29.02;23.45;;;6.80;99.90;;;;;;5030869;28;20056;-42
2022/03/29 03:46:25;;;;;;;29.67;22.45;;;6.80;99.90;;;;;;5033282;28;20066;-42
2022/03/29 03:48:52;;;;;;;32.88;24.02;;;6.80;99.90;;;;;;5034120;28;20127;-42
2022/03/29 03:51:18;;;;;;;34.42;22.92;;;6.80;99.90;;;;;;5034120;28;20512;-43
2022/03/29 03:53:44;;;;;;;29.88;23.55;;;6.80;99.90;;;;;;5037515;28;20468;-42
2022/03/29 03:56:10;;;;;;;32.63;24.45;;;6.80;99.90;;;;;;5033665;28;20060;-43
2022/03/29 03:58:36;;;;;;;34.13;22.90;;;6.80;99.90;;;;;;5034578;28;20050;-40
2022/03/29 04:01:01;;;;;;;32.80;23.67;;;6.80;99.90;;;;;;5035765;28;20047;-42
2022/03/29 04:03:27;;;;;;;32.42;23.52;;;6.80;99.90;;;;;;5033242;28;20137;-42
2022/03/29 04:05:53;;;;;;;33.70;23.58;;;6.80;99.90;;;;;;5014904;28;20045;-41
2022/03/29 04:08:18;;;;;;;30.30;23.15;;;6.80;99.90;;;;;;5019943;28;20455;-41
2022/03/29 04:10:44;;;;;;;34.78;23.15;;;6.80;99.90;;;;;;5033055;28;20133;-40
2022/03/29 04:13:10;;;;;;;33.45;24.58;;;6.80;99.90;;;;;;5035263;28;20038;-42
2022/03/29 04:15:37;;;;;;;29.00;24.08;;;6.80;99.90;;;;;;5031475;28;20049;-40
2022/03/29 04:18:03;;;;;;;32.65;23.48;;;6.80;99.90;;;;;;5020535;28;20053;-41
2022/03/29 04:20:29;;;;;;;29.63;24.23;;;6.70;99.90;;;;;;5036511;28;20040;-40
2022/03/29 04:22:55;;;;;;;32.40;23.63;;;6.70;99.90;;;;;;5032761;28;20049;-41
2022/03/29 04:25:25;;;;;;;31.10;22.98;;;6.70;99.90;;;;;;5038726;28;20561;-42
2022/03/29 04:27:51;;;;;;;33.25;23.85;;;6.70;99.90;;;;;;5037748;28;20045;-41
2022/03/29 04:30:16;;;;;;;28.65;23.33;;;6.70;99.90;;;;;;5040187;28;20077;-42
2022/03/29 04:32:42;;;;;;;33.72;24.23;;;6.60;99.90;;;;;;5036338;28;20053;-41
2022/03/29 04:35:08;;;;;;;31.08;24.15;;;6.60;99.90;;;;;;5035219;28;20522;-41
2022/03/29 04:37:34;;;;;;;31.67;24.40;;;6.60;99.90;;;;;;5036136;28;20163;-41
2022/03/29 04:39:59;;;;;;;35.55;24.65;;;6.60;99.90;;;;;;5041280;28;20516;-42
2022/03/29 04:42:27;;;;;;;35.30;25.52;;;6.50;99.90;;;;;;5029679;28;20578;-41
2022/03/29 04:44:53;;;;;;;33.65;25.42;;;6.50;99.90;;;;;;5042681;28;20098;-42
2022/03/29 04:47:18;;;;;;;37.08;27.25;;;6.50;99.90;;;;;;5040482;28;20053;-42
2022/03/29 04:49:44;;;;;;;35.53;26.13;;;6.50;99.90;;;;;;5044604;28;20087;-48
2022/03/29 04:52:13;;;;;;;34.22;24.10;;;6.50;99.90;;;;;;5038882;28;20132;-50
2022/03/29 04:54:38;;;;;;;36.63;24.88;;;6.50;99.90;;;;;;5023944;28;20092;-40
2022/03/29 04:57:04;;;;;;;33.53;24.63;;;6.50;99.90;;;;;;5037798;28;20128;-41
2022/03/29 04:59:30;;;;;;;31.35;24.10;;;6.50;99.90;;;;;;5036423;28;20071;-42
2022/03/29 05:01:56;;;;;;;34.70;24.27;;;6.50;99.90;;;;;;5040788;28;20099;-42
2022/03/29 05:04:21;;;;;;;34.13;23.50;;;6.50;99.90;;;;;;5036536;28;20224;-42
2022/03/29 05:06:47;;;;;;;33.70;24.45;;;6.60;99.90;;;;;;5036734;28;20533;-41
2022/03/29 05:09:13;;;;;;;34.50;25.02;;;6.60;99.90;;;;;;5018931;28;20531;-40
2022/03/29 05:11:39;;;;;;;34.25;24.08;;;6.60;99.90;;;;;;5028903;28;20049;-41
2022/03/29 05:14:04;;;;;;;31.95;24.23;;;6.70;99.90;;;;;;5039983;28;20049;-41
2022/03/29 05:16:30;;;;;;;37.53;23.98;;;6.60;99.90;;;;;;5036388;28;20057;-40
2022/03/29 05:18:56;;;;;;;34.17;23.02;;;6.70;99.90;;;;;;5040011;28;20067;-42
2022/03/29 05:21:22;;;;;;;35.17;24.15;;;6.70;99.90;;;;;;5034898;28;20156;-42
2022/03/29 05:23:48;;;;;;;31.05;21.50;;;6.70;99.90;;;;;;5004934;28;20142;-42
2022/03/29 05:26:13;;;;;;;30.80;22.60;;;6.60;99.90;;;;;;5030794;28;20109;-42
2022/03/29 05:28:39;;;;;;;31.95;22.52;;;6.60;99.90;;;;;;5039122;28;20573;-42
2022/03/29 05:31:05;;;;;;;32.88;22.10;;;6.70;99.90;;;;;;5034275;28;20447;-41
2022/03/29 05:33:31;;;;;;;29.58;21.50;;;6.70;99.90;;;;;;5038985;28;20142;-41
2022/03/29 05:35:57;;;;;;;31.55;22.58;;;6.70;99.90;;;;;;5039842;28;20128;-41
2022/03/29 05:38:23;;;;;;;31.83;22.63;;;6.70;99.90;;;;;;5015230;28;20234;-42
2022/03/29 05:40:49;;;;;;;34.35;23.55;;;6.70;99.90;;;;;;5052084;28;20566;-41
2022/03/29 05:43:17;;;;;;;35.22;23.83;;;6.70;99.90;;;;;;5052047;28;20094;-41
2022/03/29 05:45:43;;;;;;;35.42;23.73;;;6.70;99.90;;;;;;5061319;28;20391;-42
2022/03/29 05:50:54;;;;;;;33.42;23.65;;;6.70;99.90;;;;;;5052080;28;20059;-41
2022/03/29 05:53:20;;;;;;;35.83;22.77;;;6.80;99.90;;;;;;5056579;28;20048;-43
2022/03/29 05:55:48;;;;;;;34.97;24.67;;;6.80;99.90;;;;;;5022516;28;20053;-41
2022/03/29 05:58:16;;;;;;;35.35;23.20;;;6.80;99.90;;;;;;5043180;28;20048;-42
2022/03/29 06:00:43;;;;;;;32.42;23.05;;;6.80;99.90;;;;;;5055594;28;20495;-41
2022/03/29 06:03:10;;;;;;;32.63;23.67;;;6.90;99.90;;;;;;5034897;28;20053;-45
2022/03/29 06:05:42;;;;;;;34.05;22.38;;;6.90;99.90;;;;;;5052722;28;20135;-43
2022/03/29 06:08:08;;;;;;;35.47;23.17;;;7.00;99.90;;;;;;5058826;28;20506;-41
2022/03/29 06:10:34;;;;;;;35.08;23.85;;;7.00;99.90;;;;;;5052374;28;20827;-42
2022/03/29 06:12:59;;;;;;;35.63;24.40;;;7.00;99.90;;;;;;5055148;28;20559;-40
2022/03/29 06:15:25;;;;;;;33.65;23.65;;;6.90;99.90;;;;;;5034360;28;20045;-42
2022/03/29 06:17:51;;;;;;;35.42;23.92;;;7.00;99.90;;;;;;5048359;28;20131;-42
2022/03/29 06:20:16;;;;;;;33.72;23.73;;;7.00;99.90;;;;;;5053705;28;20075;-41
2022/03/29 06:22:46;;;;;;;37.55;24.00;;;7.00;99.90;;;;;;5054332;28;20044;-42
2022/03/29 06:25:12;;;;;;;38.42;24.67;;;7.00;99.90;;;;;;5059172;28;20121;-41
2022/03/29 06:27:39;;;;;;;37.70;25.30;;;7.10;99.90;;;;;;5050789;28;20044;-39
2022/03/29 06:30:05;;;;;;;38.08;24.95;;;7.10;99.90;;;;;;5051130;28;20388;-41
2022/03/29 06:32:32;;;;;;;40.65;24.73;;;7.10;99.90;;;;;;5049409;28;20056;-42
2022/03/29 06:34:59;;;;;;;40.63;24.85;;;7.10;99.90;;;;;;5056313;28;20157;-41
2022/03/29 06:37:30;;;;;;;34.78;24.83;;;7.10;99.90;;;;;;5055368;28;20107;-40
2022/03/29 06:39:56;;;;;;;37.17;25.15;;;7.20;99.90;;;;;;5058704;28;20071;-42
2022/03/29 06:42:22;;;;;;;35.95;24.95;;;7.20;99.90;;;;;;5037148;28;20502;-41
2022/03/29 06:44:48;;;;;;;40.53;24.60;;;7.30;99.90;;;;;;5058463;28;20052;-41
2022/03/29 06:47:16;;;;;;;40.35;25.50;;;7.30;99.90;;;;;;5058076;28;20110;-42
2022/03/29 06:49:42;;;;;;;37.05;25.33;;;7.40;99.90;;;;;;5055830;28;20054;-41
2022/03/29 06:52:08;;;;;;;42.78;26.08;;;7.50;99.90;;;;;;5041134;28;20052;-41
2022/03/29 06:54:34;;;;;;;36.35;24.98;;;7.60;99.90;;;;;;5054953;28;20060;-41
2022/03/29 06:56:59;;;;;;;41.85;24.70;;;7.80;99.90;;;;;;5051935;28;20478;-41
2022/03/29 06:59:25;;;;;;;35.78;24.73;;;8.00;99.90;;;;;;5059638;28;20070;-41
2022/03/29 07:01:51;;;;;;;36.75;25.27;;;8.10;99.90;;;;;;5059349;28;20518;-42
2022/03/29 07:04:17;;;;;;;42.97;26.08;;;8.20;99.90;;;;;;5054577;28;20380;-41
2022/03/29 07:06:42;;;;;;;39.00;26.08;;;8.30;99.90;;;;;;5055119;28;20052;-41
2022/03/29 07:11:54;;;;;;;38.50;25.98;;;8.40;99.90;;;;;;4996576;28;20057;-41
2022/03/29 07:14:20;;;;;;;37.70;25.58;;;8.40;99.90;;;;;;5000095;28;20109;-42
2022/03/29 07:16:47;;;;;;;35.70;25.63;;;8.50;99.90;;;;;;4997954;28;20068;-46
2022/03/29 07:19:13;;;;;;;37.55;26.45;;;8.50;99.90;;;;;;4997385;28;20115;-43
2022/03/29 07:21:39;;;;;;;36.20;25.83;;;8.70;99.90;;;;;;4994847;28;20089;-42
2022/03/29 07:24:09;;;;;;;42.67;25.98;;;8.80;99.90;;;;;;4996103;28;20192;-42
2022/03/29 07:26:36;;;;;;;36.53;25.00;;;9.20;99.90;;;;;;4986043;28;20054;-41
2022/03/29 07:29:04;;;;;;;41.00;25.23;;;9.50;99.90;;;;;;4997051;28;20750;-42
2022/03/29 07:31:30;;;;;;;44.70;26.45;;;9.60;99.90;;;;;;4979340;28;20085;-42
2022/03/29 07:33:56;;;;;;;41.60;26.38;;;9.60;99.90;;;;;;4995893;28;20489;-41
2022/03/29 07:36:22;;;;;;;38.17;25.85;;;9.20;99.90;;;;;;4994327;28;20068;-42
2022/03/29 07:38:48;;;;;;;42.92;25.02;;;9.10;99.90;;;;;;4989673;28;20468;-41
2022/03/29 07:41:14;;;;;;;35.03;24.60;;;9.00;99.90;;;;;;4993939;28;20647;-43
2022/03/29 07:43:40;;;;;;;43.60;27.65;;;9.00;99.90;;;;;;4988061;28;20062;-42
2022/03/29 07:46:05;;;;;;;37.20;26.40;;;9.00;99.90;;;;;;4973182;28;20077;-43
2022/03/29 07:48:31;;;;;;;40.75;25.58;;;8.90;99.90;;;;;;5000887;28;20052;-41
2022/03/29 07:50:57;;;;;;;35.40;25.77;;;9.00;99.90;;;;;;5051550;28;20487;-42
2022/03/29 07:53:25;;;;;;;42.03;27.73;;;9.10;99.90;;;;;;5016783;28;20056;-42
2022/03/29 07:55:56;;;;;;;38.80;25.52;;;9.10;99.90;;;;;;5055491;28;20041;-42
2022/03/29 07:58:21;;;;;;;42.83;25.38;;;9.10;99.90;;;;;;5056679;28;20407;-41
2022/03/29 08:00:52;;;;;;;41.55;26.98;;;9.20;99.90;;;;;;5044173;28;20047;-42
2022/03/29 08:03:21;;;;;;;39.25;26.00;;;9.10;99.90;;;;;;5042667;28;20061;-42
2022/03/29 08:05:48;;;;;;;40.25;24.83;;;9.10;99.90;;;;;;5042957;28;20044;-42
2022/03/29 08:08:19;;;;;;;40.00;26.48;;;9.20;99.90;;;;;;5054483;28;20488;-42
2022/03/29 08:10:47;;;;;;;36.40;25.67;;;9.30;99.90;;;;;;5042398;28;20475;-42
2022/03/29 08:13:14;;;;;;;35.15;25.65;;;9.30;99.90;;;;;;5043301;28;20186;-41
2022/03/29 08:15:41;;;;;;;38.45;26.65;;;9.20;99.90;;;;;;5024344;28;20052;-41
2022/03/29 08:18:13;;;;;;;38.97;24.30;;;9.20;99.90;;;;;;5050794;28;20049;-41
2022/03/29 08:20:40;;;;;;;39.05;25.17;;;9.20;99.90;;;;;;5053208;28;20052;-42
2022/03/29 08:23:07;;;;;;;41.05;24.88;;;9.10;99.90;;;;;;5043023;28;20571;-41
2022/03/29 08:25:36;;;;;;;39.45;24.73;;;9.20;99.90;;;;;;5043440;28;20088;-42
2022/03/29 08:28:02;;;;;;;38.80;25.70;;;9.20;99.90;;;;;;5066513;28;20067;-40
2022/03/29 08:30:30;;;;;;;35.47;24.15;;;9.30;99.90;;;;;;5050185;28;20084;-49
2022/03/29 08:32:57;;;;;;;38.70;26.27;;;9.40;99.90;;;;;;5050425;28;20754;-42
2022/03/29 08:35:24;;;;;;;37.30;25.83;;;9.60;99.90;;;;;;5048242;28;20045;-40
2022/03/29 08:37:50;;;;;;;40.45;24.50;;;9.80;99.90;;;;;;5050107;28;20491;-42
2022/03/29 08:40:21;;;;;;;35.85;24.15;;;10.10;99.90;;;;;;5047066;28;20049;-42
2022/03/29 08:42:49;;;;;;;38.65;26.10;;;10.30;99.90;;;;;;5041597;28;20063;-42
2022/03/29 08:45:16;;;;;;;37.63;24.52;;;10.20;99.90;;;;;;5023418;28;20510;-42
2022/03/29 08:47:44;;;;;;;45.17;25.83;;;10.40;99.90;;;;;;5036969;28;20076;-42
2022/03/29 08:50:11;;;;;;;43.15;27.33;;;10.30;99.90;;;;;;5041432;28;20136;-43
2022/03/29 08:52:39;;;;;;;37.15;25.45;;;10.30;99.90;;;;;;5037144;28;20486;-42
2022/03/29 08:55:06;;;;;;;39.65;24.88;;;10.50;99.90;;;;;;5040691;28;20533;-41
2022/03/29 08:57:32;;;;;;;39.92;23.65;;;10.50;99.90;;;;;;5037657;28;20118;-43
2022/03/29 08:59:59;;;;;;;44.40;25.45;;;10.60;99.90;;;;;;5041855;28;20563;-41
2022/03/29 09:02:25;;;;;;;43.13;24.15;;;10.70;99.90;;;;;;5042593;28;20099;-42
2022/03/29 09:05:08;;;;;;;35.28;25.02;;;10.70;99.90;;;;;;5041934;28;20037;-43
2022/03/29 09:08:03;;;;;;;43.65;26.17;;;10.70;99.90;;;;;;5041694;28;20045;-42
2022/03/29 09:10:48;;;;;;;36.42;25.38;;;10.40;99.90;;;;;;5033395;28;20496;-41
2022/03/29 09:13:23;;;;;;;35.70;24.75;;;10.30;99.90;;;;;;5041166;28;20491;-42
2022/03/29 09:15:51;;;;;;;38.15;24.58;;;10.40;99.90;;;;;;5040495;28;20666;-41
2022/03/29 09:18:17;;;;;;;42.63;25.48;;;10.30;99.90;;;;;;5041186;28;20498;-41
2022/03/29 09:20:45;;;;;;;43.08;24.23;;;10.10;99.90;;;;;;5035634;28;20092;-42
2022/03/29 09:23:17;;;;;;;39.90;25.25;;;10.20;99.90;;;;;;5041243;28;20500;-41
2022/03/29 09:25:47;;;;;;;39.72;25.10;;;10.20;99.90;;;;;;5016378;28;20061;-43
2022/03/29 09:28:15;;;;;;;37.85;24.65;;;10.10;99.90;;;;;;5041132;28;20628;-43
2022/03/29 09:30:45;;;;;;;35.25;24.33;;;10.10;99.90;;;;;;5040818;28;20049;-40
2022/03/29 09:33:40;;;;;;;38.92;24.67;;;10.10;99.90;;;;;;5035783;28;20125;-40
2022/03/29 09:36:12;;;;;;;41.25;26.67;;;10.10;99.90;;;;;;5043647;28;20049;-41
2022/03/29 09:38:44;;;;;;;42.28;27.58;;;9.80;99.90;;;;;;5042655;28;20044;-41
2022/03/29 09:41:28;;;;;;;38.58;24.40;;;9.70;99.90;;;;;;5054680;28;20573;-42
2022/03/29 09:44:11;;;;;;;34.92;24.02;;;9.80;99.90;;;;;;5061908;28;20133;-44
2022/03/29 09:47:02;;;;;;;49.83;25.65;;;9.90;99.90;;;;;;5062239;28;20045;-43
2022/03/29 09:49:28;;;;;;;35.97;24.20;;;10.10;99.90;;;;;;5058129;28;20056;-42
2022/03/29 09:52:15;;;;;;;37.25;25.42;;;10.20;99.90;;;;;;5058195;28;20128;-42
2022/03/29 09:54:41;;;;;;;37.03;23.90;;;10.30;99.90;;;;;;5060260;28;20048;-44
2022/03/29 09:57:07;;;;;;;38.20;26.23;;;10.30;99.90;;;;;;5041870;28;20054;-43
2022/03/29 09:59:33;;;;;;;36.95;24.92;;;10.30;99.90;;;;;;5054520;28;20114;-41
2022/03/29 10:02:00;;;;;;;40.70;25.92;;;10.20;99.90;;;;;;5055256;28;20402;-42
2022/03/29 10:04:33;;;;;;;38.53;26.33;;;10.10;99.90;;;;;;5052931;28;20572;-42
2022/03/29 10:07:04;;;;;;;47.00;26.70;;;10.10;99.90;;;;;;5058641;28;20507;-42
2022/03/29 10:09:33;;;;;;;41.97;25.90;;;10.00;99.90;;;;;;5060239;28;20120;-42
2022/03/29 10:12:03;;;;;;;42.00;25.90;;;10.10;99.90;;;;;;5080618;28;20196;-42
2022/03/29 10:14:38;;;;;;;36.42;24.35;;;10.20;99.90;;;;;;5080044;28;20470;-40
2022/03/29 10:17:07;;;;;;;38.58;24.58;;;10.30;99.90;;;;;;5080959;28;20059;-44
2022/03/29 10:19:38;;;;;;;35.60;24.30;;;10.50;99.90;;;;;;5078864;28;20126;-42
2022/03/29 10:22:05;;;;;;;39.88;24.63;;;10.30;99.90;;;;;;5076688;28;20567;-42
2022/03/29 10:24:32;;;;;;;35.67;25.38;;;10.30;99.90;;;;;;5076331;28;20045;-42
2022/03/29 10:27:00;;;;;;;34.55;24.33;;;10.50;99.90;;;;;;5076896;28;20644;-42
2022/03/29 10:29:27;;;;;;;40.60;25.98;;;10.60;99.90;;;;;;5079780;28;20055;-42
2022/03/29 10:32:07;;;;;;;38.63;24.50;;;10.90;99.90;;;;;;5078753;28;20060;-42
2022/03/29 10:34:42;;;;;;;39.65;24.40;;;11.10;99.90;;;;;;5067557;28;20135;-44
2022/03/29 10:37:20;;;;;;;38.08;24.85;;;11.40;99.90;;;;;;5078926;28;20090;-41
2022/03/29 10:39:55;;;;;;;35.33;22.58;;;11.50;99.90;;;;;;5075061;28;20047;-44
2022/03/29 10:42:29;;;;;;;38.72;24.05;;;11.80;99.90;;;;;;5079079;28;20410;-42
2022/03/29 10:45:06;;;;;;;30.73;22.08;;;12.10;99.90;;;;;;5078611;28;20561;-41
2022/03/29 10:47:33;;;;;;;36.38;24.08;;;12.40;99.90;;;;;;5074423;28;20040;-42
2022/03/29 10:50:00;;;;;;;38.70;23.95;;;12.50;99.90;;;;;;5053745;28;20079;-42
2022/03/29 10:52:25;;;;;;;34.05;23.40;;;12.50;99.90;;;;;;5078192;28;20052;-44
2022/03/29 10:54:53;;;;;;;30.00;23.35;;;12.40;99.90;;;;;;5080279;28;20048;-42
2022/03/29 10:57:31;;;;;;;34.15;23.55;;;12.40;99.90;;;;;;5079521;28;20096;-43
2022/03/29 11:00:22;;;;;;;31.05;23.52;;;12.60;99.90;;;;;;5084828;28;20048;-43
2022/03/29 11:03:11;;;;;;;31.20;22.80;;;12.80;99.90;;;;;;5071031;28;20158;-44
2022/03/29 11:06:06;;;;;;;36.03;22.52;;;12.80;99.90;;;;;;5080182;28;20066;-43
2022/03/29 11:09:00;;;;;;;35.67;24.23;;;12.80;99.90;;;;;;5076251;28;20041;-42
2022/03/29 11:11:46;;;;;;;34.50;23.27;;;12.40;99.90;;;;;;5064932;28;20131;-42
2022/03/29 11:14:27;;;;;;;42.22;23.70;;;12.10;99.90;;;;;;5073921;28;20047;-43
2022/03/29 11:17:21;;;;;;;33.20;25.23;;;12.00;99.90;;;;;;5078744;28;20672;-40
2022/03/29 11:19:50;;;;;;;;;;;12.10;99.90;;;;;;5078383;28;20048;-41
2022/03/29 11:22:22;;;;;;;37.25;25.33;;;11.70;99.90;;;;;;5055761;28;20008;-43
2022/03/29 11:24:53;;;;;;;31.92;25.98;;;11.60;99.90;;;;;;5074318;28;20443;-41
2022/03/29 11:27:32;;;;;;;32.72;24.13;;;11.60;99.90;;;;;;5054714;28;20062;-43
2022/03/29 11:29:59;;;;;;;34.88;25.60;;;11.70;99.90;;;;;;5078124;28;20104;-43
2022/03/29 11:32:26;;;;;;;40.30;25.45;;;11.90;99.90;;;;;;5076561;28;20047;-41
2022/03/29 11:34:53;;;;;;;35.35;24.35;;;12.00;99.90;;;;;;5076060;28;20078;-41
2022/03/29 11:37:33;;;;;;;37.10;24.77;;;12.00;99.90;;;;;;5078716;28;20666;-43
2022/03/29 11:40:06;;;;;;;35.63;24.30;;;12.20;99.90;;;;;;5054710;28;20248;-41
2022/03/29 11:42:55;;;;;;;33.38;25.30;;;12.50;99.90;;;;;;5065306;28;20385;-43
2022/03/29 11:45:23;;;;;;;36.05;24.48;;;12.60;99.90;;;;;;5070495;28;20044;-41
2022/03/29 11:48:08;;;;;;;32.85;23.38;;;12.80;99.90;;;;;;5078550;28;20121;-42
2022/03/29 11:50:55;;;;;;;38.33;21.90;;;12.90;99.90;;;;;;5052553;28;20071;-42
2022/03/29 11:53:25;;;;;;;30.65;19.02;;;12.80;99.90;;;;;;5072448;28;20040;-43
2022/03/29 11:56:03;;;;;;;33.33;18.10;;;12.30;99.90;;;;;;5071399;28;20052;-42
2022/03/29 11:58:37;;;;;;;59.95;18.90;;;12.30;99.90;;;;;;5080155;28;20075;-42
2022/03/29 12:01:18;;;;;;;32.72;17.45;;;12.20;99.90;;;;;;5080254;28;20109;-42
2022/03/29 12:03:56;;;;;;;28.25;15.15;;;12.00;99.90;;;;;;5073825;28;20048;-40
2022/03/29 12:06:27;;;;;;;29.83;14.75;;;12.10;99.90;;;;;;5078629;28;20071;-43
2022/03/29 12:09:06;;;;;;;30.35;15.85;;;11.80;99.90;;;;;;5077275;28;20059;-42
2022/03/29 12:11:39;;;;;;;29.42;17.30;;;12.00;99.90;;;;;;5080805;28;20052;-42
2022/03/29 12:14:24;;;;;;;29.67;15.73;;;11.90;99.90;;;;;;5084554;28;20044;-43
2022/03/29 12:16:58;;;;;;;37.45;15.20;;;11.90;99.90;;;;;;5077656;28;20119;-43
2022/03/29 12:19:26;;;;;;;29.42;16.02;;;12.00;99.90;;;;;;5079480;28;20048;-43
2022/03/29 12:21:59;;;;;;;29.70;15.73;;;12.10;99.90;;;;;;5070918;28;20052;-43
2022/03/29 12:24:26;;;;;;;33.17;15.00;;;12.20;99.90;;;;;;5078719;28;20146;-42
2022/03/29 12:26:57;;;;;;;35.83;15.30;;;12.20;99.90;;;;;;5078359;28;20410;-43
2022/03/29 12:29:25;;;;;;;30.30;15.25;;;12.10;99.90;;;;;;5079068;28;20399;-42
2022/03/29 12:31:52;;;;;;;31.00;14.43;;;12.00;99.90;;;;;;5078888;28;20040;-42
2022/03/29 12:34:24;;;;;;;33.78;14.57;;;12.00;99.90;;;;;;5051468;28;20052;-40
2022/03/29 12:36:57;;;;;;;26.50;15.13;;;12.00;99.90;;;;;;5069102;28;20296;-42
2022/03/29 12:39:24;;;;;;;41.28;16.02;;;12.10;99.90;;;;;;5076643;28;20036;-42
2022/03/29 12:41:52;;;;;;;30.38;14.93;;;12.10;99.90;;;;;;5069753;28;20053;-42
2022/03/29 12:44:31;;;;;;;33.05;15.55;;;12.10;99.90;;;;;;5080177;28;20561;-43
2022/03/29 12:46:58;;;;;;;32.70;16.70;;;11.90;99.90;;;;;;5081985;28;20079;-43
2022/03/29 12:49:24;;;;;;;31.50;15.98;;;11.90;99.90;;;;;;5081698;28;20055;-43